createdAt,value
2019-01-29T00:01:04.584Z,19.40
2019-01-29T00:03:34.977Z,11.90
2019-01-29T00:06:04.728Z,13.53
2019-01-29T00:08:35.952Z,14.90
2019-01-29T00:11:05.489Z,9.93
2019-01-29T00:13:35.028Z,15.07
2019-01-29T00:16:04.906Z,12.50
2019-01-29T00:18:34.400Z,9.27
2019-01-29T00:21:03.787Z,12.30
2019-01-29T00:23:34.936Z,12.83
2019-01-29T00:26:04.371Z,14.57
2019-01-29T00:28:33.809Z,10.37
2019-01-29T00:31:03.192Z,13.77
2019-01-29T00:33:32.490Z,13.03
2019-01-29T00:36:01.855Z,15.70
2019-01-29T00:38:31.200Z,14.23
2019-01-29T00:41:00.631Z,14.93
2019-01-29T00:43:30.037Z,13.17
2019-01-29T00:46:00.508Z,18.57
2019-01-29T00:48:29.842Z,16.53
2019-01-29T00:50:59.191Z,16.53
2019-01-29T00:53:28.524Z,12.07
2019-01-29T00:55:57.884Z,13.93
2019-01-29T00:58:27.211Z,14.93
2019-01-29T01:00:58.448Z,10.23
2019-01-29T01:03:27.776Z,18.73
2019-01-29T01:05:57.167Z,16.03
2019-01-29T01:08:26.474Z,18.20
2019-01-29T01:10:57.080Z,13.97
2019-01-29T01:13:26.404Z,7.87
2019-01-29T01:15:55.791Z,14.27
2019-01-29T01:18:25.122Z,13.93
2019-01-29T01:20:54.572Z,14.40
2019-01-29T01:23:23.996Z,14.23
2019-01-29T01:25:53.489Z,13.73
2019-01-29T01:28:22.893Z,15.73
2019-01-29T01:30:52.276Z,10.37
2019-01-29T01:33:21.604Z,18.23
2019-01-29T01:35:50.957Z,11.50
2019-01-29T01:38:20.311Z,13.73
2019-01-29T01:40:49.725Z,17.40
2019-01-29T01:43:19.162Z,17.00
2019-01-29T01:45:48.601Z,19.50
2019-01-29T01:48:18.303Z,22.73
2019-01-29T01:50:47.676Z,30.13
2019-01-29T01:53:18.613Z,22.03
2019-01-29T01:55:49.419Z,21.67
2019-01-29T01:58:18.805Z,24.90
2019-01-29T02:00:48.207Z,26.37
2019-01-29T02:03:17.611Z,24.47
2019-01-29T02:05:47.095Z,20.63
2019-01-29T02:08:16.540Z,23.07
2019-01-29T02:10:45.944Z,22.40
2019-01-29T02:13:15.479Z,33.47
2019-01-29T02:15:44.957Z,24.27
2019-01-29T02:18:14.729Z,28.60
2019-01-29T02:20:44.524Z,26.83
2019-01-29T02:23:14.588Z,26.43
2019-01-29T02:25:44.399Z,22.00
2019-01-29T02:28:47.151Z,26.90
2019-01-29T02:31:23.312Z,26.00
2019-01-29T02:37:29.597Z,24.40
2019-01-29T02:40:10.208Z,25.77
2019-01-29T02:42:51.672Z,31.00
2019-01-29T02:45:33.143Z,28.20
2019-01-29T02:48:14.430Z,27.00
2019-01-29T02:50:55.899Z,24.07
2019-01-29T02:53:37.043Z,29.87
2019-01-29T02:56:18.672Z,31.70
2019-01-29T02:59:00.053Z,25.77
2019-01-29T03:01:40.957Z,23.53
2019-01-29T03:04:21.653Z,27.23
2019-01-29T03:07:03.095Z,26.50
2019-01-29T03:09:44.329Z,24.20
2019-01-29T03:12:23.887Z,25.63
2019-01-29T03:20:51.610Z,22.00
2019-01-29T03:23:32.351Z,27.70
2019-01-29T03:26:13.487Z,22.30
2019-01-29T03:28:54.942Z,23.57
2019-01-29T03:31:36.522Z,24.90
2019-01-29T03:34:17.890Z,24.90
2019-01-29T03:36:58.500Z,29.20
2019-01-29T03:39:39.990Z,23.93
2019-01-29T03:42:21.184Z,26.83
2019-01-29T03:45:01.985Z,26.37
2019-01-29T03:47:43.536Z,26.50
2019-01-29T03:50:25.014Z,25.73
2019-01-29T03:53:06.368Z,24.53
2019-01-29T03:55:47.213Z,21.07
2019-01-29T03:58:28.430Z,23.00
2019-01-29T04:01:09.819Z,21.77
2019-01-29T04:03:51.287Z,22.90
2019-01-29T04:06:33.113Z,24.47
2019-01-29T04:09:14.271Z,25.47
2019-01-29T04:11:55.709Z,26.97
2019-01-29T04:14:37.263Z,22.90
2019-01-29T04:17:18.898Z,24.43
2019-01-29T04:20:00.300Z,27.50
2019-01-29T04:22:45.858Z,21.57
2019-01-29T04:25:27.683Z,32.23
2019-01-29T04:28:08.763Z,25.17
2019-01-29T04:30:50.319Z,21.17
2019-01-29T04:33:31.568Z,20.00
2019-01-29T04:36:13.301Z,18.90
2019-01-29T04:38:54.233Z,25.57
2019-01-29T04:44:25.268Z,24.33
2019-01-29T04:46:55.154Z,24.53
2019-01-29T04:49:24.496Z,19.67
2019-01-29T04:52:14.344Z,20.63
2019-01-29T04:58:13.373Z,17.00
2019-01-29T05:01:03.122Z,18.77
2019-01-29T05:03:33.002Z,14.63
2019-01-29T05:06:03.103Z,17.83
2019-01-29T05:08:33.334Z,17.07
2019-01-29T05:11:03.804Z,24.20
2019-01-29T05:13:34.677Z,16.37
2019-01-29T05:16:05.499Z,18.40
2019-01-29T05:18:35.662Z,19.57
2019-01-29T05:21:16.420Z,20.43
2019-01-29T05:24:06.472Z,26.60
2019-01-29T05:26:40.524Z,24.20
2019-01-29T05:29:21.092Z,21.47
2019-01-29T05:32:02.492Z,20.80
2019-01-29T05:34:43.127Z,20.67
2019-01-29T05:37:23.829Z,26.43
2019-01-29T05:40:04.535Z,27.13
2019-01-29T05:42:45.759Z,24.20
2019-01-29T05:45:27.138Z,22.50
2019-01-29T05:48:08.444Z,28.57
2019-01-29T05:50:49.971Z,25.10
2019-01-29T05:53:30.804Z,28.77
2019-01-29T05:56:12.220Z,28.27
2019-01-29T05:58:52.830Z,24.20
2019-01-29T06:01:34.220Z,21.97
2019-01-29T06:04:15.704Z,24.47
2019-01-29T06:06:57.088Z,27.50
2019-01-29T06:09:38.474Z,28.97
2019-01-29T06:12:19.108Z,27.33
2019-01-29T06:15:00.484Z,28.73
2019-01-29T06:17:41.064Z,28.33
2019-01-29T06:20:21.290Z,33.27
2019-01-29T06:26:17.186Z,31.57
2019-01-29T06:29:17.399Z,25.87
2019-01-29T06:31:55.724Z,35.83
2019-01-29T06:43:40.397Z,26.17
2019-01-29T06:46:43.264Z,30.80
2019-01-29T06:55:35.876Z,33.50
2019-01-29T06:58:28.689Z,30.67
2019-01-29T07:04:03.877Z,27.37
2019-01-29T07:09:46.383Z,33.03
2019-01-29T07:12:34.825Z,31.93
2019-01-29T07:19:10.810Z,27.70
2019-01-29T07:21:51.795Z,34.43
2019-01-29T07:24:33.102Z,31.67
2019-01-29T07:27:14.738Z,27.40
2019-01-29T07:29:56.098Z,32.57
2019-01-29T07:32:37.704Z,26.17
2019-01-29T07:35:19.056Z,35.53
2019-01-29T07:38:00.270Z,39.33
2019-01-29T07:40:41.709Z,36.73
2019-01-29T07:43:23.043Z,30.00
2019-01-29T07:46:04.504Z,30.20
2019-01-29T07:48:45.932Z,33.10
2019-01-29T07:51:27.312Z,29.83
2019-01-29T07:54:08.165Z,29.77
2019-01-29T07:56:49.676Z,34.07
2019-01-29T07:59:33.138Z,28.90
2019-01-29T08:02:13.402Z,31.43
2019-01-29T08:04:53.908Z,29.90
2019-01-29T08:07:35.390Z,25.10
2019-01-29T08:10:16.050Z,34.70
2019-01-29T08:12:57.609Z,29.90
2019-01-29T08:15:39.143Z,27.70
2019-01-29T08:18:20.723Z,28.00
2019-01-29T08:21:02.079Z,25.03
2019-01-29T08:23:43.188Z,29.77
2019-01-29T08:26:24.673Z,29.20
2019-01-29T08:29:06.196Z,23.23
2019-01-29T08:31:46.116Z,27.57
2019-01-29T08:37:30.177Z,25.13
2019-01-29T08:40:19.343Z,28.27
2019-01-29T08:43:08.173Z,25.73
2019-01-29T08:49:10.573Z,30.20
2019-01-29T08:51:47.466Z,28.10
2019-01-29T08:57:59.824Z,25.43
2019-01-29T09:00:36.353Z,23.97
2019-01-29T09:03:39.254Z,29.10
2019-01-29T09:06:16.764Z,23.33
2019-01-29T09:12:49.179Z,24.70
2019-01-29T09:21:23.051Z,20.63
2019-01-29T09:24:04.570Z,26.97
2019-01-29T09:26:45.892Z,27.53
2019-01-29T09:29:27.485Z,25.93
2019-01-29T09:32:09.399Z,28.40
2019-01-29T09:34:50.524Z,23.63
2019-01-29T09:37:31.589Z,24.73
2019-01-29T09:40:12.255Z,22.33
2019-01-29T09:42:53.197Z,19.97
2019-01-29T09:45:34.462Z,21.10
2019-01-29T09:48:04.397Z,25.63
2019-01-29T09:50:52.764Z,29.03
2019-01-29T09:59:17.916Z,23.40
2019-01-29T10:02:06.888Z,19.70
2019-01-29T10:22:25.434Z,22.03
2019-01-29T10:25:07.209Z,19.27
2019-01-29T10:27:48.704Z,21.60
2019-01-29T10:48:30.709Z,17.53
2019-01-29T10:51:33.578Z,22.10
2019-01-29T11:03:48.426Z,9.07
2019-01-29T11:18:38.286Z,11.90
2019-01-29T11:21:19.523Z,8.40
2019-01-29T11:24:00.664Z,9.67
2019-01-29T11:26:41.798Z,7.97
2019-01-29T11:29:23.403Z,9.13
2019-01-29T11:32:04.500Z,7.93
2019-01-29T11:34:46.307Z,6.97
2019-01-29T11:37:27.567Z,8.10
2019-01-29T11:40:08.918Z,5.63
2019-01-29T11:42:50.189Z,7.90
2019-01-29T11:45:31.431Z,6.97
2019-01-29T11:48:12.770Z,4.60
2019-01-29T11:50:53.945Z,5.47
2019-01-29T11:53:35.036Z,6.97
2019-01-29T11:56:15.738Z,8.53
2019-01-29T12:01:46.588Z,4.33
2019-01-29T12:04:28.498Z,9.07
2019-01-29T12:07:10.053Z,11.27
2019-01-29T12:09:51.099Z,6.77
2019-01-29T12:12:35.123Z,6.50
2019-01-29T12:15:16.959Z,9.20
2019-01-29T12:17:58.462Z,9.37
2019-01-29T12:20:38.689Z,8.67
2019-01-29T12:32:26.091Z,6.57
2019-01-29T12:35:14.566Z,4.37
2019-01-29T12:38:02.950Z,4.87
2019-01-29T12:40:44.271Z,4.27
2019-01-29T12:43:24.964Z,7.43
2019-01-29T12:46:06.448Z,5.40
2019-01-29T12:48:47.945Z,5.00
2019-01-29T12:54:33.138Z,2.27
2019-01-29T12:57:14.621Z,4.80
2019-01-29T12:59:55.379Z,4.63
2019-01-29T13:02:36.755Z,2.47
2019-01-29T13:05:18.044Z,4.83
2019-01-29T13:07:59.650Z,6.80
2019-01-29T13:10:40.976Z,5.87
2019-01-29T13:13:21.791Z,6.33
2019-01-29T13:16:06.125Z,6.33
2019-01-29T13:18:46.842Z,6.50
2019-01-29T13:21:28.256Z,3.27
2019-01-29T13:24:08.852Z,4.63
2019-01-29T13:26:49.435Z,6.10
2019-01-29T13:29:30.553Z,4.97
2019-01-29T13:32:11.336Z,7.47
2019-01-29T13:34:52.136Z,4.13
2019-01-29T13:37:33.362Z,7.10
2019-01-29T13:40:14.155Z,6.27
2019-01-29T13:42:54.870Z,6.00
2019-01-29T13:45:35.538Z,5.73
2019-01-29T13:48:16.897Z,3.53
2019-01-29T13:50:57.509Z,7.00
2019-01-29T13:53:38.173Z,7.83
2019-01-29T13:56:18.980Z,4.07
2019-01-29T13:58:59.805Z,6.43
2019-01-29T14:01:40.316Z,7.03
2019-01-29T14:04:20.990Z,5.27
2019-01-29T14:07:01.860Z,5.30
2019-01-29T14:09:43.056Z,7.67
2019-01-29T14:12:24.203Z,5.33
2019-01-29T14:15:04.947Z,5.40
2019-01-29T14:17:47.221Z,5.60
2019-01-29T14:20:28.270Z,5.47
2019-01-29T14:23:09.746Z,2.60
2019-01-29T14:25:51.045Z,3.80
2019-01-29T14:28:20.511Z,4.57
2019-01-29T14:30:49.917Z,7.80
2019-01-29T14:33:19.903Z,4.77
2019-01-29T14:35:49.360Z,6.33
2019-01-29T14:38:58.171Z,5.33
2019-01-29T14:41:27.516Z,6.57
2019-01-29T14:44:00.639Z,10.03
2019-01-29T14:46:30.071Z,6.33
2019-01-29T14:48:59.512Z,5.87
2019-01-29T14:51:28.947Z,5.47
2019-01-29T14:53:58.277Z,6.37
2019-01-29T14:56:28.769Z,7.83
2019-01-29T14:58:58.137Z,7.33
2019-01-29T15:01:34.709Z,4.50
2019-01-29T15:04:05.655Z,6.77
2019-01-29T15:06:35.819Z,7.10
2019-01-29T15:09:09.687Z,6.63
2019-01-29T15:11:39.110Z,8.63
2019-01-29T15:14:09.961Z,6.67
2019-01-29T15:17:10.755Z,8.73
2019-01-29T15:19:40.459Z,10.30
2019-01-29T15:22:10.115Z,6.87
2019-01-29T15:24:39.505Z,8.47
2019-01-29T15:27:08.846Z,11.87
2019-01-29T15:29:38.225Z,6.37
2019-01-29T15:32:07.582Z,6.17
2019-01-29T15:34:36.973Z,7.83
2019-01-29T15:37:06.476Z,7.90
2019-01-29T15:39:37.313Z,10.40
2019-01-29T15:42:06.801Z,5.67
2019-01-29T15:44:36.323Z,10.43
2019-01-29T15:47:05.771Z,10.37
2019-01-29T15:49:35.192Z,8.50
2019-01-29T15:52:04.536Z,10.90
2019-01-29T15:54:33.972Z,9.23
2019-01-29T15:57:03.335Z,6.67
2019-01-29T15:59:32.801Z,8.13
2019-01-29T16:02:02.151Z,7.53
2019-01-29T16:04:31.588Z,6.80
2019-01-29T16:07:02.382Z,7.40
2019-01-29T16:09:32.759Z,8.90
2019-01-29T16:12:03.734Z,7.50
2019-01-29T16:14:33.185Z,5.67
2019-01-29T16:17:02.505Z,6.23
2019-01-29T16:19:31.918Z,5.67
2019-01-29T16:22:01.297Z,5.20
2019-01-29T16:24:30.682Z,7.53
2019-01-29T16:27:06.631Z,7.83
2019-01-29T16:29:31.136Z,9.03
2019-01-29T16:32:00.569Z,8.77
2019-01-29T16:34:29.974Z,10.57
2019-01-29T16:36:59.346Z,7.50
2019-01-29T16:39:28.729Z,7.67
2019-01-29T16:41:58.109Z,8.40
2019-01-29T16:44:27.525Z,6.50
2019-01-29T16:46:56.980Z,8.33
2019-01-29T16:49:26.459Z,9.70
2019-01-29T16:51:56.028Z,8.47
2019-01-29T16:54:25.388Z,9.07
2019-01-29T16:56:54.783Z,8.37
2019-01-29T16:59:24.192Z,13.63
2019-01-29T17:01:53.748Z,10.87
2019-01-29T17:04:23.128Z,8.37
2019-01-29T17:06:52.546Z,7.83
2019-01-29T17:09:22.000Z,10.63
2019-01-29T17:11:51.411Z,13.30
2019-01-29T17:14:20.798Z,15.30
2019-01-29T17:16:50.244Z,11.70
2019-01-29T17:19:19.637Z,14.30
2019-01-29T17:21:49.050Z,11.93
2019-01-29T17:24:18.406Z,8.07
2019-01-29T17:26:47.850Z,11.60
2019-01-29T17:29:17.286Z,13.27
2019-01-29T17:31:46.701Z,9.30
2019-01-29T17:34:16.157Z,16.90
2019-01-29T17:36:45.534Z,10.60
2019-01-29T17:39:14.915Z,13.07
2019-01-29T17:41:44.470Z,10.30
2019-01-29T17:44:13.963Z,7.90
2019-01-29T17:46:43.403Z,6.93
2019-01-29T17:49:12.739Z,8.17
2019-01-29T17:51:42.099Z,17.13
2019-01-29T17:54:11.537Z,12.10
2019-01-29T17:56:40.949Z,11.80
2019-01-29T17:59:10.330Z,8.17
2019-01-29T18:01:39.744Z,8.23
2019-01-29T18:04:09.408Z,10.07
2019-01-29T18:06:39.992Z,9.63
2019-01-29T18:09:10.436Z,8.90
2019-01-29T18:11:39.779Z,13.17
2019-01-29T18:14:09.706Z,9.53
2019-01-29T18:16:39.168Z,13.53
2019-01-29T18:19:08.853Z,10.57
2019-01-29T18:21:38.479Z,11.97
2019-01-29T18:24:08.110Z,10.50
2019-01-29T18:26:37.732Z,10.83
2019-01-29T18:29:08.388Z,10.17
2019-01-29T18:31:37.926Z,11.27
2019-01-29T18:34:08.574Z,8.80
2019-01-29T18:36:37.930Z,10.67
2019-01-29T18:39:09.854Z,10.87
2019-01-29T18:41:39.253Z,11.03
2019-01-29T18:44:11.305Z,11.13
2019-01-29T18:46:40.678Z,11.10
2019-01-29T18:49:11.852Z,11.10
2019-01-29T18:51:41.375Z,11.63
2019-01-29T18:54:10.793Z,16.17
2019-01-29T18:56:40.473Z,9.10
2019-01-29T18:59:09.857Z,10.57
2019-01-29T19:01:39.375Z,10.20
2019-01-29T19:04:08.808Z,10.63
2019-01-29T19:06:40.417Z,11.40
2019-01-29T19:09:09.928Z,11.47
2019-01-29T19:11:39.332Z,10.53
2019-01-29T19:14:09.896Z,11.40
2019-01-29T19:16:39.474Z,10.33
2019-01-29T19:19:08.936Z,11.73
2019-01-29T19:21:40.830Z,24.90
2019-01-29T19:24:10.236Z,11.43
2019-01-29T19:26:39.654Z,11.80
2019-01-29T19:29:09.024Z,9.83
2019-01-29T19:31:39.774Z,8.53
2019-01-29T19:34:11.081Z,10.23
2019-01-29T19:36:40.439Z,10.47
2019-01-29T19:39:10.329Z,11.30
2019-01-29T19:41:39.820Z,9.73
2019-01-29T19:44:09.214Z,10.40
2019-01-29T19:46:39.730Z,11.10
2019-01-29T19:49:09.205Z,8.77
2019-01-29T19:51:38.857Z,14.97
2019-01-29T19:54:08.238Z,6.90
2019-01-29T19:56:37.695Z,9.73
2019-01-29T19:59:07.559Z,12.23
2019-01-29T20:01:38.188Z,10.53
2019-01-29T20:04:07.596Z,7.63
2019-01-29T20:06:37.054Z,8.93
2019-01-29T20:09:11.825Z,11.10
2019-01-29T20:11:42.716Z,7.63
2019-01-29T20:14:12.268Z,12.27
2019-01-29T20:16:42.728Z,9.90
2019-01-29T20:19:12.416Z,8.47
2019-01-29T20:21:42.849Z,10.57
2019-01-29T20:24:14.228Z,9.60
2019-01-29T20:26:45.443Z,10.13
2019-01-29T20:29:14.946Z,12.03
2019-01-29T20:31:45.405Z,6.63
2019-01-29T20:34:15.075Z,11.13
2019-01-29T20:36:46.200Z,8.10
2019-01-29T20:39:15.683Z,6.73
2019-01-29T20:41:45.024Z,11.23
2019-01-29T20:44:14.423Z,8.80
2019-01-29T20:46:44.004Z,10.07
2019-01-29T20:49:13.750Z,7.60
2019-01-29T20:57:25.258Z,7.13
2019-01-29T21:03:29.744Z,9.37
2019-01-29T21:06:18.191Z,7.50
2019-01-29T21:09:08.398Z,5.00
2019-01-29T21:11:56.939Z,7.77
2019-01-29T21:14:45.648Z,7.27
2019-01-29T21:17:34.140Z,8.13
2019-01-29T21:23:30.413Z,3.93
2019-01-29T21:26:11.850Z,5.67
2019-01-29T21:29:02.468Z,4.57
2019-01-29T21:31:35.861Z,9.87
2019-01-29T21:34:16.582Z,9.00
2019-01-29T21:36:58.157Z,9.03
2019-01-29T21:39:38.761Z,7.60
2019-01-29T21:42:08.288Z,5.80
2019-01-29T21:44:56.680Z,6.57
2019-01-29T21:47:45.292Z,7.07
2019-01-29T21:50:33.850Z,5.30
2019-01-29T21:53:22.320Z,5.83
2019-01-29T21:55:51.799Z,5.43
2019-01-29T21:58:40.189Z,6.33
2019-01-29T22:01:28.754Z,9.70
2019-01-29T22:04:17.163Z,6.67
2019-01-29T22:06:46.514Z,8.43
2019-01-29T22:09:15.964Z,11.73
2019-01-29T22:12:04.460Z,8.03
2019-01-29T22:14:33.792Z,8.60
2019-01-29T22:17:03.188Z,7.17
2019-01-29T22:19:51.624Z,5.80
2019-01-29T22:22:32.613Z,6.93
2019-01-29T22:25:13.206Z,5.03
2019-01-29T22:27:53.896Z,10.87
2019-01-29T22:30:35.298Z,5.73
2019-01-29T22:33:15.908Z,7.50
2019-01-29T22:35:57.387Z,6.90
2019-01-29T22:38:38.772Z,7.90
2019-01-29T22:41:20.449Z,9.80
2019-01-29T22:44:01.066Z,5.67
2019-01-29T22:46:42.555Z,8.00
2019-01-29T22:49:23.187Z,9.03
2019-01-29T22:52:03.914Z,9.13
2019-01-29T22:54:44.492Z,8.87
2019-01-29T22:57:25.098Z,6.63
2019-01-29T23:00:05.926Z,9.00
2019-01-29T23:02:46.645Z,10.17
2019-01-29T23:05:27.360Z,8.13
2019-01-29T23:08:08.817Z,7.93
2019-01-29T23:10:49.509Z,6.87
2019-01-29T23:13:30.137Z,7.63
2019-01-29T23:16:10.826Z,11.33
2019-01-29T23:18:52.333Z,10.43
2019-01-29T23:21:33.859Z,13.33
2019-01-29T23:24:15.420Z,8.30
2019-01-29T23:26:56.796Z,6.83
2019-01-29T23:29:43.686Z,9.23
2019-01-29T23:32:20.736Z,7.83
2019-01-29T23:35:02.057Z,7.30
2019-01-29T23:37:42.634Z,6.27
2019-01-29T23:40:23.397Z,9.30
2019-01-29T23:43:04.559Z,8.93
2019-01-29T23:45:45.479Z,9.43
2019-01-29T23:48:26.912Z,7.00
2019-01-29T23:51:08.423Z,11.87
2019-01-29T23:53:49.687Z,11.97
2019-01-29T23:56:30.312Z,8.80
2019-01-29T23:59:11.717Z,10.90
